createdAt,value
2019-01-06T00:01:48.050Z,6.53
2019-01-06T00:04:39.494Z,6.78
2019-01-06T00:07:26.217Z,5.70
2019-01-06T00:10:19.617Z,6.05
2019-01-06T00:13:04.489Z,5.75
2019-01-06T00:15:49.455Z,7.33
2019-01-06T00:18:36.281Z,5.97
2019-01-06T00:21:22.784Z,8.28
2019-01-06T00:24:18.493Z,6.25
2019-01-06T00:27:04.529Z,6.25
2019-01-06T00:29:49.852Z,6.10
2019-01-06T00:32:44.982Z,6.12
2019-01-06T00:35:46.821Z,6.67
2019-01-06T00:38:40.626Z,7.47
2019-01-06T00:41:25.854Z,6.62
2019-01-06T00:44:12.474Z,6.90
2019-01-06T00:47:09.363Z,7.10
2019-01-06T00:50:08.597Z,6.22
2019-01-06T00:53:06.470Z,6.97
2019-01-06T00:55:51.241Z,7.10
2019-01-06T00:58:37.322Z,9.65
2019-01-06T01:01:33.852Z,7.75
2019-01-06T01:04:20.072Z,6.12
2019-01-06T01:07:17.445Z,8.05
2019-01-06T01:10:10.628Z,7.70
2019-01-06T01:12:54.662Z,6.15
2019-01-06T01:15:40.561Z,7.35
2019-01-06T01:18:29.757Z,8.68
2019-01-06T01:21:20.113Z,7.53
2019-01-06T01:24:06.059Z,9.48
2019-01-06T01:26:54.418Z,8.18
2019-01-06T01:29:40.494Z,9.68
2019-01-06T01:32:23.128Z,8.80
2019-01-06T01:35:03.926Z,8.15
2019-01-06T01:38:09.413Z,8.03
2019-01-06T01:41:02.277Z,8.30
2019-01-06T01:43:47.437Z,8.75
2019-01-06T01:46:36.781Z,9.40
2019-01-06T01:49:22.042Z,8.50
2019-01-06T01:52:08.214Z,7.62
2019-01-06T01:54:56.821Z,7.92
2019-01-06T01:57:42.847Z,7.78
2019-01-06T02:00:30.221Z,6.90
2019-01-06T02:03:21.878Z,6.60
2019-01-06T02:06:08.238Z,6.95
2019-01-06T02:08:57.188Z,6.33
2019-01-06T02:11:36.826Z,6.72
2019-01-06T02:14:16.692Z,6.63
2019-01-06T02:17:01.744Z,6.10
2019-01-06T02:19:51.145Z,6.00
2019-01-06T02:22:36.836Z,6.67
2019-01-06T02:25:23.154Z,7.42
2019-01-06T02:28:15.800Z,6.67
2019-01-06T02:30:56.346Z,7.13
2019-01-06T02:33:57.126Z,6.67
2019-01-06T02:36:55.358Z,7.27
2019-01-06T02:39:42.703Z,7.53
2019-01-06T02:42:28.735Z,8.18
2019-01-06T02:45:22.813Z,6.80
2019-01-06T02:48:11.195Z,7.12
2019-01-06T02:50:57.648Z,7.25
2019-01-06T02:53:50.319Z,6.62
2019-01-06T02:56:36.325Z,6.60
2019-01-06T02:59:21.460Z,6.35
2019-01-06T03:02:06.505Z,5.80
2019-01-06T03:04:59.061Z,5.33
2019-01-06T03:07:46.613Z,5.87
2019-01-06T03:10:48.882Z,5.00
2019-01-06T03:13:45.145Z,5.90
2019-01-06T03:16:30.569Z,4.83
2019-01-06T03:19:17.489Z,5.40
2019-01-06T03:22:10.442Z,5.47
2019-01-06T03:25:04.169Z,5.65
2019-01-06T03:27:51.661Z,5.62
2019-01-06T03:30:42.741Z,5.42
2019-01-06T03:33:30.299Z,5.67
2019-01-06T03:36:16.802Z,6.05
2019-01-06T03:39:18.011Z,6.12
2019-01-06T03:42:04.536Z,6.60
2019-01-06T03:44:50.589Z,6.10
2019-01-06T03:47:53.082Z,5.12
2019-01-06T03:50:42.591Z,5.28
2019-01-06T03:53:37.045Z,4.87
2019-01-06T03:56:25.992Z,5.20
2019-01-06T03:59:12.085Z,3.98
2019-01-06T04:02:10.887Z,4.60
2019-01-06T04:04:57.451Z,4.78
2019-01-06T04:07:40.581Z,5.00
2019-01-06T04:10:27.351Z,3.60
2019-01-06T04:13:12.392Z,3.87
2019-01-06T04:16:00.199Z,4.30
2019-01-06T04:18:46.310Z,3.30
2019-01-06T04:21:39.714Z,3.87
2019-01-06T04:24:23.947Z,4.00
2019-01-06T04:27:14.368Z,3.90
2019-01-06T04:30:01.954Z,4.67
2019-01-06T04:32:47.853Z,3.37
2019-01-06T04:35:41.818Z,3.98
2019-01-06T04:38:44.589Z,4.67
2019-01-06T04:41:37.329Z,5.20
2019-01-06T04:44:32.988Z,5.17
2019-01-06T04:47:18.051Z,4.95
2019-01-06T04:50:19.595Z,4.08
2019-01-06T04:53:15.290Z,4.40
2019-01-06T04:56:01.995Z,6.35
2019-01-06T04:58:55.215Z,6.30
2019-01-06T05:01:44.274Z,3.87
2019-01-06T05:04:34.379Z,6.13
2019-01-06T05:07:20.069Z,5.12
2019-01-06T05:10:10.458Z,6.70
2019-01-06T05:12:57.018Z,8.18
2019-01-06T05:15:40.433Z,7.93
2019-01-06T05:18:36.829Z,6.10
2019-01-06T05:21:36.354Z,6.92
2019-01-06T05:24:22.652Z,6.95
2019-01-06T05:27:13.340Z,7.90
2019-01-06T05:30:05.186Z,7.10
2019-01-06T05:32:54.992Z,8.45
2019-01-06T05:35:40.988Z,6.85
2019-01-06T05:38:25.552Z,10.93
2019-01-06T05:41:11.029Z,6.83
2019-01-06T05:44:10.658Z,5.87
2019-01-06T05:46:49.242Z,7.78
2019-01-06T05:49:33.040Z,8.60
2019-01-06T05:52:22.983Z,9.35
2019-01-06T05:55:11.530Z,7.22
2019-01-06T05:57:58.814Z,6.40
2019-01-06T06:00:44.805Z,8.35
2019-01-06T06:03:37.188Z,7.80
2019-01-06T06:06:23.405Z,11.30
2019-01-06T06:09:10.298Z,9.57
2019-01-06T06:12:00.454Z,10.40
2019-01-06T06:14:42.941Z,6.87
2019-01-06T06:17:31.021Z,9.33
2019-01-06T06:20:17.519Z,10.60
2019-01-06T06:23:11.599Z,8.38
2019-01-06T06:25:58.186Z,11.80
2019-01-06T06:28:40.869Z,9.75
2019-01-06T06:31:28.633Z,9.43
2019-01-06T06:34:13.662Z,11.90
2019-01-06T06:36:55.641Z,11.12
2019-01-06T06:39:44.005Z,14.98
2019-01-06T06:42:31.553Z,17.40
2019-01-06T06:45:17.313Z,14.93
2019-01-06T06:48:17.069Z,15.53
2019-01-06T06:51:24.728Z,15.00
2019-01-06T06:54:07.000Z,10.93
2019-01-06T06:56:58.185Z,15.88
2019-01-06T06:59:51.881Z,12.20
2019-01-06T07:03:11.398Z,15.70
2019-01-06T07:05:59.222Z,13.98
2019-01-06T07:08:53.329Z,9.60
2019-01-06T07:11:43.670Z,12.82
2019-01-06T07:14:25.627Z,13.97
2019-01-06T07:18:07.837Z,8.47
2019-01-06T07:20:59.277Z,13.17
2019-01-06T07:23:45.575Z,15.30
2019-01-06T07:26:28.737Z,13.98
2019-01-06T07:29:22.625Z,11.63
2019-01-06T07:32:13.277Z,11.90
2019-01-06T07:34:59.410Z,10.80
2019-01-06T07:37:53.473Z,12.93
2019-01-06T07:40:43.293Z,8.60
2019-01-06T07:43:28.877Z,9.45
2019-01-06T07:46:08.774Z,7.83
2019-01-06T07:48:54.889Z,6.90
2019-01-06T07:51:41.118Z,8.00
2019-01-06T07:54:22.021Z,7.50
2019-01-06T07:57:00.318Z,6.30
2019-01-06T07:59:46.833Z,6.17
2019-01-06T08:02:33.367Z,10.68
2019-01-06T08:05:18.981Z,7.83
2019-01-06T08:08:15.326Z,5.83
2019-01-06T08:11:04.054Z,6.30
2019-01-06T08:13:53.725Z,5.85
2019-01-06T08:16:43.313Z,7.37
2019-01-06T08:19:28.737Z,7.95
2019-01-06T08:22:22.479Z,8.07
2019-01-06T08:25:01.754Z,8.40
2019-01-06T08:27:52.986Z,7.17
2019-01-06T08:30:39.674Z,7.15
2019-01-06T08:33:29.583Z,10.68
2019-01-06T08:36:15.554Z,11.53
2019-01-06T08:39:09.758Z,10.32
2019-01-06T08:41:56.087Z,9.90
2019-01-06T08:44:40.177Z,9.83
2019-01-06T08:47:26.474Z,12.90
2019-01-06T08:50:12.075Z,10.78
2019-01-06T08:52:59.172Z,11.12
2019-01-06T08:55:48.142Z,12.10
2019-01-06T08:58:34.601Z,12.00
2019-01-06T09:01:18.758Z,12.40
2019-01-06T09:04:14.538Z,12.73
2019-01-06T09:07:00.096Z,10.63
2019-01-06T09:09:50.048Z,10.98
2019-01-06T09:12:51.893Z,10.20
2019-01-06T09:15:38.990Z,11.75
2019-01-06T09:18:39.028Z,9.65
2019-01-06T09:21:21.169Z,9.78
2019-01-06T09:24:04.992Z,11.93
2019-01-06T09:26:53.018Z,12.23
2019-01-06T09:29:43.786Z,11.07
2019-01-06T09:32:29.761Z,10.78
2019-01-06T09:35:16.412Z,10.13
2019-01-06T09:38:04.251Z,12.65
2019-01-06T09:40:51.390Z,10.93
2019-01-06T09:43:31.722Z,8.53
2019-01-06T09:46:08.525Z,11.78
2019-01-06T09:49:13.167Z,10.87
2019-01-06T09:52:18.550Z,11.70
2019-01-06T09:55:04.230Z,13.33
2019-01-06T09:57:54.134Z,10.90
2019-01-06T10:00:50.856Z,8.07
2019-01-06T10:03:43.136Z,11.03
2019-01-06T10:06:29.581Z,9.50
2019-01-06T10:09:26.807Z,9.63
2019-01-06T10:12:26.546Z,8.05
2019-01-06T10:15:20.907Z,11.10
2019-01-06T10:18:09.870Z,10.47
2019-01-06T10:20:54.274Z,12.95
2019-01-06T10:23:50.902Z,10.70
2019-01-06T10:26:37.562Z,10.47
2019-01-06T10:29:26.649Z,11.10
2019-01-06T10:32:20.096Z,8.30
2019-01-06T10:35:13.222Z,10.57
2019-01-06T10:37:59.801Z,9.07
2019-01-06T10:40:39.218Z,10.72
2019-01-06T10:43:26.120Z,9.95
2019-01-06T10:46:16.604Z,11.70
2019-01-06T10:49:02.493Z,11.10
2019-01-06T10:51:48.738Z,12.17
2019-01-06T10:54:35.098Z,14.43
2019-01-06T10:57:32.097Z,15.98
2019-01-06T11:00:20.145Z,10.87
2019-01-06T11:03:06.230Z,11.97
2019-01-06T11:06:06.149Z,13.08
2019-01-06T11:09:02.014Z,9.13
2019-01-06T11:12:08.073Z,10.57
2019-01-06T11:14:50.628Z,13.00
2019-01-06T11:17:37.930Z,11.20
2019-01-06T11:20:40.009Z,11.03
2019-01-06T11:23:42.054Z,9.80
2019-01-06T11:26:44.641Z,9.83
2019-01-06T11:29:38.104Z,9.63
2019-01-06T11:32:29.069Z,15.13
2019-01-06T11:35:17.171Z,8.93
2019-01-06T11:38:06.640Z,9.73
2019-01-06T11:40:54.637Z,9.83
2019-01-06T11:43:33.714Z,12.33
2019-01-06T11:46:21.933Z,11.20
2019-01-06T11:49:16.817Z,7.50
2019-01-06T11:52:13.554Z,9.10
2019-01-06T11:54:58.395Z,10.05
2019-01-06T11:57:43.190Z,9.50
2019-01-06T12:00:29.209Z,9.33
2019-01-06T12:03:17.342Z,11.77
2019-01-06T12:06:11.219Z,7.83
2019-01-06T12:08:58.636Z,9.87
2019-01-06T12:11:50.013Z,9.87
2019-01-06T12:14:43.433Z,8.10
2019-01-06T12:17:49.497Z,9.20
2019-01-06T12:20:39.634Z,10.40
2019-01-06T12:23:25.772Z,8.00
2019-01-06T12:26:12.957Z,7.53
2019-01-06T12:29:01.531Z,8.18
2019-01-06T12:31:48.166Z,7.63
2019-01-06T12:34:33.832Z,7.23
2019-01-06T12:37:17.052Z,9.63
2019-01-06T12:40:02.018Z,6.00
2019-01-06T12:43:04.903Z,7.27
2019-01-06T12:45:51.607Z,8.77
2019-01-06T12:48:48.618Z,8.90
2019-01-06T12:51:31.362Z,7.67
2019-01-06T12:54:33.861Z,9.77
2019-01-06T12:57:33.850Z,8.30
2019-01-06T13:00:27.630Z,8.47
2019-01-06T13:03:13.708Z,8.80
2019-01-06T13:06:03.263Z,8.63
2019-01-06T13:08:53.621Z,7.40
2019-01-06T13:11:56.386Z,8.50
2019-01-06T13:14:46.249Z,9.10
2019-01-06T13:17:23.730Z,7.37
2019-01-06T13:20:13.980Z,7.80
2019-01-06T13:22:56.498Z,10.07
2019-01-06T13:25:41.818Z,8.57
2019-01-06T13:28:27.316Z,7.20
2019-01-06T13:31:12.987Z,8.70
2019-01-06T13:34:02.761Z,7.70
2019-01-06T13:36:48.437Z,6.50
2019-01-06T13:39:35.467Z,7.40
2019-01-06T13:42:21.894Z,6.37
2019-01-06T13:45:08.593Z,7.47
2019-01-06T13:47:54.390Z,9.83
2019-01-06T13:50:41.512Z,15.73
2019-01-06T13:53:29.135Z,16.20
2019-01-06T13:56:14.928Z,7.50
2019-01-06T13:59:00.947Z,8.20
2019-01-06T14:02:03.705Z,9.60
2019-01-06T14:04:49.852Z,6.20
2019-01-06T14:07:38.432Z,6.73
2019-01-06T14:10:30.683Z,6.97
2019-01-06T14:13:23.013Z,7.97
2019-01-06T14:16:12.516Z,8.10
2019-01-06T14:18:59.343Z,7.57
2019-01-06T14:21:50.733Z,6.43
2019-01-06T14:24:48.002Z,8.53
2019-01-06T14:27:34.481Z,6.37
2019-01-06T14:30:30.642Z,10.50
2019-01-06T14:33:28.913Z,8.60
2019-01-06T14:36:13.385Z,8.90
2019-01-06T14:39:00.977Z,11.50
2019-01-06T14:41:43.913Z,6.00
2019-01-06T14:44:28.905Z,6.53
2019-01-06T14:47:23.306Z,5.73
2019-01-06T14:50:19.193Z,5.73
2019-01-06T14:53:22.530Z,8.60
2019-01-06T14:56:10.676Z,10.83
2019-01-06T14:58:57.492Z,5.87
2019-01-06T15:01:53.947Z,10.37
2019-01-06T15:04:33.913Z,8.30
2019-01-06T15:07:26.265Z,6.90
2019-01-06T15:10:11.046Z,8.70
2019-01-06T15:12:56.674Z,7.60
2019-01-06T15:15:44.390Z,6.93
2019-01-06T15:18:31.117Z,10.73
2019-01-06T15:21:17.209Z,10.60
2019-01-06T15:24:03.323Z,7.83
2019-01-06T15:26:51.249Z,9.33
2019-01-06T15:29:42.140Z,10.00
2019-01-06T15:32:32.493Z,14.30
2019-01-06T15:35:21.578Z,9.00
2019-01-06T15:38:15.373Z,11.27
2019-01-06T15:40:56.038Z,13.60
2019-01-06T15:43:42.304Z,13.60
2019-01-06T15:46:32.765Z,10.58
2019-01-06T15:49:19.875Z,11.60
2019-01-06T15:52:07.872Z,12.13
2019-01-06T15:55:03.808Z,17.03
2019-01-06T15:57:53.429Z,9.68
2019-01-06T16:00:54.062Z,11.48
2019-01-06T16:03:40.418Z,11.00
2019-01-06T16:06:35.723Z,9.93
2019-01-06T16:09:31.402Z,10.10
2019-01-06T16:12:17.393Z,9.03
2019-01-06T16:15:03.712Z,8.70
2019-01-06T16:17:53.050Z,7.20
2019-01-06T16:20:39.469Z,16.65
2019-01-06T16:23:28.961Z,8.85
2019-01-06T16:26:22.760Z,8.28
2019-01-06T16:29:10.861Z,6.65
2019-01-06T16:31:59.166Z,6.60
2019-01-06T16:35:02.178Z,6.53
2019-01-06T16:37:48.594Z,8.88
2019-01-06T16:40:54.189Z,8.50
2019-01-06T16:43:40.383Z,8.03
2019-01-06T16:46:45.709Z,8.98
2019-01-06T16:49:42.094Z,7.78
2019-01-06T16:52:30.030Z,7.20
2019-01-06T16:55:26.122Z,5.75
2019-01-06T16:58:25.349Z,8.28
2019-01-06T17:01:10.999Z,9.43
2019-01-06T17:03:57.832Z,14.03
2019-01-06T17:06:57.455Z,8.33
2019-01-06T17:09:43.125Z,14.90
2019-01-06T17:12:24.262Z,8.58
2019-01-06T17:15:15.841Z,8.63
2019-01-06T17:18:06.366Z,11.38
2019-01-06T17:20:44.580Z,10.50
2019-01-06T17:23:30.393Z,9.97
2019-01-06T17:26:36.123Z,12.15
2019-01-06T17:29:38.761Z,12.58
2019-01-06T17:32:37.146Z,13.10
2019-01-06T17:35:41.841Z,12.37
2019-01-06T17:38:33.338Z,12.30
2019-01-06T17:41:19.545Z,14.93
2019-01-06T17:44:10.089Z,17.40
2019-01-06T17:47:03.933Z,12.40
2019-01-06T17:49:49.921Z,13.43
2019-01-06T17:52:46.431Z,17.90
2019-01-06T17:55:49.463Z,10.95
2019-01-06T17:58:43.882Z,9.80
2019-01-06T18:01:26.889Z,14.15
2019-01-06T18:04:12.410Z,14.35
2019-01-06T18:07:14.270Z,13.43
2019-01-06T18:09:59.646Z,13.83
2019-01-06T18:12:44.650Z,11.90
2019-01-06T18:15:30.290Z,12.17
2019-01-06T18:18:16.412Z,14.53
2019-01-06T18:21:06.848Z,13.50
2019-01-06T18:24:04.305Z,10.77
2019-01-06T18:26:51.253Z,12.60
2019-01-06T18:29:37.257Z,17.00
2019-01-06T18:32:24.131Z,14.68
2019-01-06T18:35:05.007Z,9.73
2019-01-06T18:37:55.414Z,12.73
2019-01-06T18:40:33.128Z,9.50
2019-01-06T18:43:18.393Z,12.45
2019-01-06T18:46:15.959Z,13.18
2019-01-06T18:49:01.774Z,8.90
2019-01-06T18:51:59.031Z,10.00
2019-01-06T18:54:44.890Z,12.93
2019-01-06T18:57:29.905Z,9.83
2019-01-06T19:00:26.985Z,11.48
2019-01-06T19:03:17.723Z,12.55
2019-01-06T19:06:17.246Z,11.05
2019-01-06T19:09:10.943Z,13.25
2019-01-06T19:11:56.915Z,11.03
2019-01-06T19:14:40.232Z,11.80
2019-01-06T19:17:23.878Z,14.60
2019-01-06T19:20:26.745Z,16.32
2019-01-06T19:23:18.167Z,14.83
2019-01-06T19:26:04.725Z,15.75
2019-01-06T19:28:55.561Z,15.07
2019-01-06T19:31:41.875Z,13.62
2019-01-06T19:34:29.097Z,13.53
2019-01-06T19:37:21.498Z,14.28
2019-01-06T19:40:17.532Z,15.83
2019-01-06T19:43:16.005Z,16.82
2019-01-06T19:46:03.022Z,16.62
2019-01-06T19:48:48.822Z,15.13
2019-01-06T19:51:50.571Z,14.73
2019-01-06T19:54:49.157Z,17.65
2019-01-06T19:57:48.179Z,20.70
2019-01-06T20:00:42.735Z,15.07
2019-01-06T20:03:40.061Z,14.97
2019-01-06T20:06:26.157Z,17.37
2019-01-06T20:09:12.586Z,11.88
2019-01-06T20:11:58.338Z,19.63
2019-01-06T20:14:58.121Z,15.78
2019-01-06T20:17:44.164Z,13.45
2019-01-06T20:20:31.797Z,16.25
2019-01-06T20:23:19.893Z,16.15
2019-01-06T20:26:07.614Z,14.63
2019-01-06T20:28:53.979Z,18.27
2019-01-06T20:31:56.846Z,15.05
2019-01-06T20:34:49.707Z,15.98
2019-01-06T20:37:35.169Z,18.80
2019-01-06T20:40:20.307Z,18.48
2019-01-06T20:43:00.412Z,15.80
2019-01-06T20:45:42.834Z,19.90
2019-01-06T20:48:50.767Z,19.32
2019-01-06T20:51:48.670Z,16.05
2019-01-06T20:54:35.205Z,17.45
2019-01-06T20:57:18.213Z,18.92
2019-01-06T21:00:04.462Z,29.87
2019-01-06T21:02:58.919Z,19.12
2019-01-06T21:05:52.342Z,21.12
2019-01-06T21:08:38.851Z,19.23
2019-01-06T21:11:24.821Z,20.15
2019-01-06T21:14:10.940Z,20.40
2019-01-06T21:16:56.906Z,16.40
2019-01-06T21:19:41.946Z,21.97
2019-01-06T21:22:27.062Z,19.32
2019-01-06T21:25:21.575Z,15.23
2019-01-06T21:28:06.966Z,17.73
2019-01-06T21:30:52.233Z,15.95
2019-01-06T21:33:38.334Z,21.87
2019-01-06T21:36:27.738Z,18.20
2019-01-06T21:39:09.927Z,29.82
2019-01-06T21:41:56.285Z,16.50
2019-01-06T21:44:50.108Z,20.13
2019-01-06T21:47:35.875Z,20.25
2019-01-06T21:50:22.209Z,17.55
2019-01-06T21:53:12.638Z,20.37
2019-01-06T21:56:09.711Z,17.55
2019-01-06T21:58:47.631Z,24.70
2019-01-06T22:01:40.147Z,17.25
2019-01-06T22:04:41.879Z,20.97
2019-01-06T22:07:24.937Z,20.62
2019-01-06T22:10:10.324Z,21.00
2019-01-06T22:12:58.267Z,23.32
2019-01-06T22:15:44.464Z,26.25
2019-01-06T22:18:36.759Z,21.40
2019-01-06T22:21:28.354Z,23.87
2019-01-06T22:24:27.358Z,24.35
2019-01-06T22:27:24.242Z,20.05
2019-01-06T22:30:24.949Z,24.32
2019-01-06T22:33:18.803Z,24.15
2019-01-06T22:36:03.982Z,27.13
2019-01-06T22:38:47.969Z,21.75
2019-01-06T22:41:34.861Z,27.73
2019-01-06T22:44:20.834Z,23.90
2019-01-06T22:47:07.016Z,26.30
2019-01-06T22:49:46.246Z,25.85
2019-01-06T22:52:36.818Z,22.93
2019-01-06T22:55:14.478Z,28.83
2019-01-06T22:58:04.117Z,25.55
2019-01-06T23:00:58.486Z,26.02
2019-01-06T23:03:44.976Z,25.43
2019-01-06T23:06:26.136Z,27.17
2019-01-06T23:09:25.557Z,29.77
2019-01-06T23:12:11.870Z,29.80
2019-01-06T23:14:59.772Z,28.77
2019-01-06T23:17:45.633Z,30.72
2019-01-06T23:20:36.150Z,27.62
2019-01-06T23:23:22.545Z,30.70
2019-01-06T23:26:08.360Z,27.62
2019-01-06T23:28:55.381Z,27.93
2019-01-06T23:31:33.394Z,26.48
2019-01-06T23:34:17.217Z,28.32
2019-01-06T23:37:16.716Z,29.72
2019-01-06T23:40:20.074Z,31.62
2019-01-06T23:42:59.236Z,31.55
2019-01-06T23:45:45.321Z,28.27
2019-01-06T23:48:35.925Z,31.42
2019-01-06T23:51:42.024Z,31.73
2019-01-06T23:54:41.839Z,27.65
2019-01-06T23:57:25.976Z,27.98
